sensor_id;sensor_type;location;lat;lon;timestamp;pressure;altitude;pressure_sealevel;temperature;humidity
58245;BME280;44550;43.864;25.986;2023-07-13T00:00:19;100924.00;;;28.52;60.11
58245;BME280;44550;43.864;25.986;2023-07-13T00:10:13;100939.88;;;28.84;59.49
58245;BME280;44550;43.864;25.986;2023-07-13T00:15:11;100941.59;;;28.85;59.47
58245;BME280;44550;43.864;25.986;2023-07-13T00:19:35;100933.84;;;28.25;62.18
58245;BME280;44550;43.864;25.986;2023-07-13T00:24:17;100922.06;;;27.99;63.88
58245;BME280;44550;43.864;25.986;2023-07-13T00:29:05;100927.91;;;28.05;63.68
58245;BME280;44550;43.864;25.986;2023-07-13T00:33:57;100912.72;;;27.90;65.06
58245;BME280;44550;43.864;25.986;2023-07-13T00:38:35;100886.31;;;27.54;66.67
58245;BME280;44550;43.864;25.986;2023-07-13T00:43:19;100902.63;;;27.65;66.95
58245;BME280;44550;43.864;25.986;2023-07-13T00:48:09;100886.50;;;27.51;67.38
58245;BME280;44550;43.864;25.986;2023-07-13T01:36:41;100906.81;;;27.55;74.21
58245;BME280;44550;43.864;25.986;2023-07-13T01:41:38;100907.47;;;27.89;73.82
58245;BME280;44550;43.864;25.986;2023-07-13T01:46:47;100923.94;;;28.25;73.06
58245;BME280;44550;43.864;25.986;2023-07-13T02:02:29;100913.78;;;28.16;73.36
58245;BME280;44550;43.864;25.986;2023-07-13T02:07:00;100910.72;;;27.79;75.22
58245;BME280;44550;43.864;25.986;2023-07-13T02:11:52;100915.81;;;27.84;75.70
58245;BME280;44550;43.864;25.986;2023-07-13T02:16:38;100903.00;;;27.73;76.33
58245;BME280;44550;43.864;25.986;2023-07-13T02:27:02;100914.69;;;27.58;76.48
58245;BME280;44550;43.864;25.986;2023-07-13T02:34:32;100913.50;;;27.19;78.02
58245;BME280;44550;43.864;25.986;2023-07-13T02:43:00;100913.16;;;26.63;80.44
58245;BME280;44550;43.864;25.986;2023-07-13T02:52:42;100887.25;;;25.83;81.93
58245;BME280;44550;43.864;25.986;2023-07-13T02:57:44;100890.28;;;26.24;79.95
58245;BME280;44550;43.864;25.986;2023-07-13T03:02:34;100906.94;;;26.63;77.49
58245;BME280;44550;43.864;25.986;2023-07-13T03:07:26;100886.47;;;26.76;75.35
58245;BME280;44550;43.864;25.986;2023-07-13T03:12:09;100889.75;;;27.11;73.42
58245;BME280;44550;43.864;25.986;2023-07-13T03:17:05;100906.91;;;27.39;72.60
58245;BME280;44550;43.864;25.986;2023-07-13T03:22:09;100895.69;;;27.61;71.64
58245;BME280;44550;43.864;25.986;2023-07-13T03:26:47;100903.00;;;28.16;69.31
58245;BME280;44550;43.864;25.986;2023-07-13T03:31:48;100906.28;;;28.07;69.01
58245;BME280;44550;43.864;25.986;2023-07-13T03:36:39;100890.06;;;27.94;69.67
58245;BME280;44550;43.864;25.986;2023-07-13T03:41:50;100901.38;;;28.28;69.03
58245;BME280;44550;43.864;25.986;2023-07-13T03:46:57;100904.72;;;29.00;67.40
58245;BME280;44550;43.864;25.986;2023-07-13T03:51:30;100905.69;;;29.77;63.34
58245;BME280;44550;43.864;25.986;2023-07-13T04:13:52;100902.00;;;32.49;58.16
58245;BME280;44550;43.864;25.986;2023-07-13T04:18:29;100910.28;;;33.54;51.90
58245;BME280;44550;43.864;25.986;2023-07-13T04:23:13;100908.03;;;33.89;50.45
58245;BME280;44550;43.864;25.986;2023-07-13T04:27:42;100917.03;;;34.21;49.10
58245;BME280;44550;43.864;25.986;2023-07-13T04:32:24;100920.72;;;34.79;46.68
58245;BME280;44550;43.864;25.986;2023-07-13T04:41:56;100927.75;;;35.30;41.11
58245;BME280;44550;43.864;25.986;2023-07-13T04:46:29;100935.72;;;34.83;41.71
58245;BME280;44550;43.864;25.986;2023-07-13T04:51:06;100946.25;;;33.35;45.32
58245;BME280;44550;43.864;25.986;2023-07-13T04:56:11;100951.88;;;33.11;46.31
58245;BME280;44550;43.864;25.986;2023-07-13T05:05:40;100946.59;;;33.62;44.97
58245;BME280;44550;43.864;25.986;2023-07-13T05:11:03;100910.00;;;33.78;44.52
58245;BME280;44550;43.864;25.986;2023-07-13T05:15:23;100935.28;;;34.59;42.65
58245;BME280;44550;43.864;25.986;2023-07-13T05:20:24;100935.59;;;34.75;41.67
58245;BME280;44550;43.864;25.986;2023-07-13T05:30:34;100921.16;;;34.94;41.66
58245;BME280;44550;43.864;25.986;2023-07-13T05:35:14;100956.81;;;35.30;40.75
58245;BME280;44550;43.864;25.986;2023-07-13T05:40:26;100956.50;;;35.52;40.49
58245;BME280;44550;43.864;25.986;2023-07-13T05:45:17;100956.59;;;35.80;39.73
58245;BME280;44550;43.864;25.986;2023-07-13T06:01:38;100960.38;;;37.51;39.29
58245;BME280;44550;43.864;25.986;2023-07-13T06:12:18;100965.22;;;37.57;38.31
58245;BME280;44550;43.864;25.986;2023-07-13T06:22:49;100981.31;;;37.07;39.09
58245;BME280;44550;43.864;25.986;2023-07-13T06:27:53;100986.94;;;36.60;37.78
58245;BME280;44550;43.864;25.986;2023-07-13T06:44:53;100986.25;;;35.44;39.37
58245;BME280;44550;43.864;25.986;2023-07-13T06:50:50;100979.53;;;35.19;40.84
58245;BME280;44550;43.864;25.986;2023-07-13T07:27:35;100972.38;;;36.41;39.56
58245;BME280;44550;43.864;25.986;2023-07-13T07:32:47;100963.34;;;36.68;38.86
58245;BME280;44550;43.864;25.986;2023-07-13T07:37:44;100969.31;;;36.54;39.42
58245;BME280;44550;43.864;25.986;2023-07-13T07:42:22;100953.09;;;36.80;39.36
58245;BME280;44550;43.864;25.986;2023-07-13T07:46:58;100959.59;;;36.52;39.33
58245;BME280;44550;43.864;25.986;2023-07-13T07:51:39;100962.53;;;37.04;37.97
58245;BME280;44550;43.864;25.986;2023-07-13T07:56:54;100965.88;;;36.25;39.19
58245;BME280;44550;43.864;25.986;2023-07-13T08:01:40;100952.31;;;36.88;38.19
58245;BME280;44550;43.864;25.986;2023-07-13T08:06:59;100963.75;;;37.27;37.90
58245;BME280;44550;43.864;25.986;2023-07-13T08:16:48;100971.53;;;36.41;39.24
58245;BME280;44550;43.864;25.986;2023-07-13T08:21:06;100972.53;;;36.67;39.96
58245;BME280;44550;43.864;25.986;2023-07-13T09:01:12;100953.81;;;37.00;39.28
58245;BME280;44550;43.864;25.986;2023-07-13T09:05:54;100948.13;;;37.29;37.57
58245;BME280;44550;43.864;25.986;2023-07-13T09:11:28;100940.91;;;37.02;38.33
58245;BME280;44550;43.864;25.986;2023-07-13T09:16:07;100933.84;;;36.64;39.45
58245;BME280;44550;43.864;25.986;2023-07-13T09:32:30;100930.09;;;36.65;37.42
58245;BME280;44550;43.864;25.986;2023-07-13T09:37:48;100932.38;;;37.23;36.72
58245;BME280;44550;43.864;25.986;2023-07-13T09:55:29;100948.09;;;37.47;36.48
58245;BME280;44550;43.864;25.986;2023-07-13T10:07:07;100929.06;;;37.90;35.22
58245;BME280;44550;43.864;25.986;2023-07-13T10:23:25;100911.78;;;37.81;34.93
58245;BME280;44550;43.864;25.986;2023-07-13T10:34:26;100918.94;;;38.50;33.60
58245;BME280;44550;43.864;25.986;2023-07-13T11:12:51;100858.16;;;39.22;30.97
58245;BME280;44550;43.864;25.986;2023-07-13T11:29:49;100849.34;;;39.67;28.94
58245;BME280;44550;43.864;25.986;2023-07-13T11:39:03;100829.47;;;39.10;29.54
58245;BME280;44550;43.864;25.986;2023-07-13T12:15:45;100788.38;;;39.26;28.81
58245;BME280;44550;43.864;25.986;2023-07-13T12:23:29;100760.97;;;38.70;29.02
58245;BME280;44550;43.864;25.986;2023-07-13T12:37:59;100772.88;;;40.51;26.36
58245;BME280;44550;43.864;25.986;2023-07-13T14:28:44;100686.31;;;40.57;25.34
58245;BME280;44550;43.864;25.986;2023-07-13T14:33:50;100682.16;;;40.23;24.89
58245;BME280;44550;43.864;25.986;2023-07-13T14:38:32;100676.94;;;40.51;24.98
58245;BME280;44550;43.864;25.986;2023-07-13T15:07:53;100676.25;;;40.34;24.53
58245;BME280;44550;43.864;25.986;2023-07-13T15:12:57;100690.44;;;40.53;24.83
58245;BME280;44550;43.864;25.986;2023-07-13T15:30:03;100692.59;;;40.43;24.76
58245;BME280;44550;43.864;25.986;2023-07-13T16:05:44;100664.16;;;40.67;23.65
58245;BME280;44550;43.864;25.986;2023-07-13T16:57:35;100637.97;;;40.03;25.81
58245;BME280;44550;43.864;25.986;2023-07-13T17:08:02;100640.34;;;39.83;26.39
58245;BME280;44550;43.864;25.986;2023-07-13T17:50:17;100643.69;;;39.47;28.23
58245;BME280;44550;43.864;25.986;2023-07-13T17:55:21;100643.56;;;39.33;28.23
58245;BME280;44550;43.864;25.986;2023-07-13T18:10:15;100658.41;;;38.99;29.04
58245;BME280;44550;43.864;25.986;2023-07-13T18:14:38;100672.94;;;38.99;29.31
58245;BME280;44550;43.864;25.986;2023-07-13T18:19:24;100677.41;;;38.84;29.61
58245;BME280;44550;43.864;25.986;2023-07-13T18:24:07;100680.19;;;38.60;30.38
58245;BME280;44550;43.864;25.986;2023-07-13T18:28:31;100675.75;;;38.18;31.46
58245;BME280;44550;43.864;25.986;2023-07-13T18:33:20;100665.28;;;37.64;32.25
58245;BME280;44550;43.864;25.986;2023-07-13T18:37:37;100687.84;;;37.40;32.43
58245;BME280;44550;43.864;25.986;2023-07-13T18:41:59;100697.97;;;37.13;32.86
58245;BME280;44550;43.864;25.986;2023-07-13T18:46:24;100679.16;;;37.36;32.64
58245;BME280;44550;43.864;25.986;2023-07-13T18:55:29;100688.59;;;37.50;31.70
58245;BME280;44550;43.864;25.986;2023-07-13T19:00:12;100724.03;;;37.42;31.94
58245;BME280;44550;43.864;25.986;2023-07-13T19:04:59;100725.19;;;37.39;31.96
58245;BME280;44550;43.864;25.986;2023-07-13T19:09:25;100735.63;;;37.44;31.81
58245;BME280;44550;43.864;25.986;2023-07-13T19:13:34;100722.06;;;37.26;32.24
58245;BME280;44550;43.864;25.986;2023-07-13T19:17:42;100735.25;;;37.05;33.21
58245;BME280;44550;43.864;25.986;2023-07-13T19:21:51;100742.44;;;36.62;34.05
58245;BME280;44550;43.864;25.986;2023-07-13T19:26:18;100744.13;;;36.45;34.62
58245;BME280;44550;43.864;25.986;2023-07-13T19:30:27;100710.22;;;35.86;35.57
58245;BME280;44550;43.864;25.986;2023-07-13T19:34:37;100731.75;;;35.51;37.00
58245;BME280;44550;43.864;25.986;2023-07-13T19:38:45;100743.50;;;35.52;37.05
58245;BME280;44550;43.864;25.986;2023-07-13T19:42:59;100736.94;;;35.45;37.41
58245;BME280;44550;43.864;25.986;2023-07-13T19:47:12;100735.28;;;35.34;37.51
58245;BME280;44550;43.864;25.986;2023-07-13T19:51:37;100735.81;;;35.38;37.61
58245;BME280;44550;43.864;25.986;2023-07-13T19:55:53;100739.81;;;35.43;37.48
58245;BME280;44550;43.864;25.986;2023-07-13T20:00:34;100736.63;;;35.20;38.04
58245;BME280;44550;43.864;25.986;2023-07-13T20:04:59;100738.66;;;34.99;38.53
58245;BME280;44550;43.864;25.986;2023-07-13T20:09:29;100731.94;;;34.93;37.69
58245;BME280;44550;43.864;25.986;2023-07-13T20:13:59;100715.19;;;34.60;37.51
58245;BME280;44550;43.864;25.986;2023-07-13T20:18:22;100723.41;;;34.78;36.90
58245;BME280;44550;43.864;25.986;2023-07-13T20:24:48;100723.00;;;34.73;37.02
58245;BME280;44550;43.864;25.986;2023-07-13T20:27:56;100734.84;;;34.82;36.20
58245;BME280;44550;43.864;25.986;2023-07-13T20:32:46;100715.31;;;34.59;36.40
58245;BME280;44550;43.864;25.986;2023-07-13T20:37:00;100725.56;;;34.75;35.98
58245;BME280;44550;43.864;25.986;2023-07-13T20:41:17;100686.75;;;34.55;35.67
58245;BME280;44550;43.864;25.986;2023-07-13T20:50:32;100719.72;;;34.60;35.22
58245;BME280;44550;43.864;25.986;2023-07-13T20:54:52;100719.16;;;34.66;34.78
58245;BME280;44550;43.864;25.986;2023-07-13T20:59:21;100700.44;;;34.53;34.72
58245;BME280;44550;43.864;25.986;2023-07-13T21:04:05;100714.72;;;34.65;34.51
58245;BME280;44550;43.864;25.986;2023-07-13T21:08:45;100718.59;;;34.43;36.20
58245;BME280;44550;43.864;25.986;2023-07-13T21:13:38;100685.91;;;34.16;36.21
58245;BME280;44550;43.864;25.986;2023-07-13T21:18:08;100714.41;;;34.00;37.78
58245;BME280;44550;43.864;25.986;2023-07-13T21:22:57;100683.91;;;33.38;38.66
58245;BME280;44550;43.864;25.986;2023-07-13T21:28:12;100710.19;;;33.17;39.29
58245;BME280;44550;43.864;25.986;2023-07-13T21:44:01;100689.91;;;33.42;39.54
58245;BME280;44550;43.864;25.986;2023-07-13T21:49:01;100677.56;;;33.18;39.36
58245;BME280;44550;43.864;25.986;2023-07-13T21:53:24;100669.13;;;32.60;40.55
58245;BME280;44550;43.864;25.986;2023-07-13T22:03:18;100680.91;;;33.41;39.58
58245;BME280;44550;43.864;25.986;2023-07-13T22:07:33;100678.78;;;33.45;40.12
58245;BME280;44550;43.864;25.986;2023-07-13T22:12:26;100645.78;;;33.30;39.78
58245;BME280;44550;43.864;25.986;2023-07-13T22:17:03;100668.81;;;33.05;40.08
58245;BME280;44550;43.864;25.986;2023-07-13T22:21:38;100676.94;;;33.05;41.03
58245;BME280;44550;43.864;25.986;2023-07-13T22:26:05;100641.84;;;33.04;41.24
58245;BME280;44550;43.864;25.986;2023-07-13T22:30:36;100673.06;;;33.08;41.31
58245;BME280;44550;43.864;25.986;2023-07-13T22:34:47;100664.91;;;32.98;41.66
58245;BME280;44550;43.864;25.986;2023-07-13T22:44:42;100668.69;;;32.55;43.74
58245;BME280;44550;43.864;25.986;2023-07-13T22:48:59;100651.72;;;32.84;43.12
58245;BME280;44550;43.864;25.986;2023-07-13T22:53:39;100657.22;;;32.31;45.08
58245;BME280;44550;43.864;25.986;2023-07-13T22:57:59;100650.84;;;31.67;47.33
58245;BME280;44550;43.864;25.986;2023-07-13T23:03:19;100607.41;;;31.48;47.58
